createdAt,value
2022-10-08T00:02:23.334Z,14.00
2022-10-08T00:04:57.113Z,14.00
2022-10-08T00:07:29.323Z,14.10
2022-10-08T00:10:01.653Z,13.40
2022-10-08T00:12:33.554Z,13.50
2022-10-08T00:15:06.271Z,13.90
2022-10-08T00:17:42.993Z,14.80
2022-10-08T00:20:17.451Z,14.90
2022-10-08T00:22:50.187Z,14.70
2022-10-08T00:25:22.546Z,12.40
2022-10-08T00:28:00.816Z,11.80
2022-10-08T00:30:32.911Z,13.10
2022-10-08T00:33:05.274Z,13.50
2022-10-08T00:35:42.933Z,12.80
2022-10-08T00:38:17.221Z,11.60
2022-10-08T00:40:51.664Z,11.10
2022-10-08T00:43:44.204Z,12.50
2022-10-08T00:46:25.655Z,11.70
2022-10-08T00:49:03.440Z,10.80
2022-10-08T00:51:38.903Z,10.40
2022-10-08T00:54:11.001Z,12.10
2022-10-08T00:56:43.881Z,12.50
2022-10-08T00:59:20.051Z,13.50
2022-10-08T01:01:53.779Z,13.30
2022-10-08T01:04:26.752Z,13.20
2022-10-08T01:07:07.043Z,14.20
2022-10-08T01:09:43.951Z,13.00
2022-10-08T01:12:30.263Z,12.70
2022-10-08T01:15:06.945Z,12.00
2022-10-08T01:17:44.702Z,14.00
2022-10-08T01:20:44.414Z,15.10
2022-10-08T01:23:49.525Z,15.10
2022-10-08T01:26:42.682Z,14.70
2022-10-08T01:29:21.701Z,13.30
2022-10-08T01:31:59.808Z,12.80
2022-10-08T01:34:38.614Z,13.70
2022-10-08T01:37:17.135Z,14.40
2022-10-08T01:39:50.966Z,14.10
2022-10-08T01:42:27.293Z,15.60
2022-10-08T01:45:02.045Z,17.70
2022-10-08T01:47:35.695Z,15.90
2022-10-08T01:52:49.711Z,14.10
2022-10-08T01:55:26.764Z,14.90
2022-10-08T01:58:03.623Z,14.50
2022-10-08T02:00:37.291Z,15.40
2022-10-08T02:03:11.483Z,15.40
2022-10-08T02:05:50.714Z,14.80
2022-10-08T02:08:23.022Z,16.10
2022-10-08T02:10:55.583Z,14.80
2022-10-08T02:13:27.984Z,15.50
2022-10-08T02:16:08.528Z,14.10
2022-10-08T02:18:46.763Z,14.60
2022-10-08T02:21:25.473Z,13.30
2022-10-08T02:24:06.454Z,12.80
2022-10-08T02:26:42.638Z,12.20
2022-10-08T02:29:22.045Z,11.80
2022-10-08T02:31:58.809Z,11.90
2022-10-08T02:34:38.142Z,13.20
2022-10-08T02:37:15.883Z,11.90
2022-10-08T02:39:52.775Z,14.40
2022-10-08T02:42:29.021Z,12.00
2022-10-08T02:45:07.773Z,12.30
2022-10-08T02:47:43.758Z,13.10
2022-10-08T02:50:20.353Z,11.80
2022-10-08T02:52:54.156Z,11.50
2022-10-08T02:55:41.476Z,11.60
2022-10-08T02:58:15.103Z,13.50
2022-10-08T03:00:54.513Z,18.10
2022-10-08T03:03:34.210Z,11.30
2022-10-08T03:06:10.513Z,10.80
2022-10-08T03:08:47.500Z,11.70
2022-10-08T03:11:20.040Z,12.40
2022-10-08T03:13:58.723Z,11.80
2022-10-08T03:16:38.925Z,13.80
2022-10-08T03:19:17.999Z,14.00
2022-10-08T03:21:55.199Z,12.50
2022-10-08T03:24:27.351Z,12.10
2022-10-08T03:27:00.621Z,12.40
2022-10-08T03:29:32.883Z,12.60
2022-10-08T03:32:04.964Z,11.80
2022-10-08T03:34:40.191Z,11.70
2022-10-08T03:37:14.632Z,12.20
2022-10-08T03:39:49.590Z,11.90
2022-10-08T03:42:21.633Z,12.50
2022-10-08T03:44:55.032Z,12.60
2022-10-08T03:47:27.170Z,12.50
2022-10-08T03:49:59.450Z,11.40
2022-10-08T03:52:32.943Z,11.30
2022-10-08T03:55:05.200Z,11.80
2022-10-08T03:57:37.448Z,11.40
2022-10-08T04:00:16.854Z,11.20
2022-10-08T04:02:52.510Z,10.20
2022-10-08T04:05:24.618Z,11.90
2022-10-08T04:07:56.820Z,10.80
2022-10-08T04:10:29.009Z,11.80
2022-10-08T04:13:01.122Z,11.80
2022-10-08T04:15:34.090Z,11.40
2022-10-08T04:18:07.480Z,12.60
2022-10-08T04:20:39.781Z,13.40
2022-10-08T04:23:14.602Z,12.30
2022-10-08T04:25:54.026Z,13.30
2022-10-08T04:28:26.638Z,11.60
2022-10-08T04:31:04.683Z,13.70
2022-10-08T04:33:40.409Z,14.10
2022-10-08T04:36:14.821Z,14.20
2022-10-08T04:38:52.363Z,14.70
2022-10-08T04:41:27.651Z,13.60
2022-10-08T04:44:03.071Z,14.10
2022-10-08T04:46:37.403Z,11.70
2022-10-08T04:49:11.525Z,13.10
2022-10-08T04:51:44.798Z,12.90
2022-10-08T04:54:18.526Z,12.60
2022-10-08T04:56:51.984Z,11.50
2022-10-08T04:59:25.590Z,12.20
2022-10-08T05:01:59.859Z,13.10
2022-10-08T05:04:35.753Z,12.90
2022-10-08T05:07:11.489Z,12.90
2022-10-08T05:09:45.298Z,13.70
2022-10-08T05:14:49.987Z,12.80
2022-10-08T05:17:23.305Z,15.40
2022-10-08T05:19:57.090Z,14.20
2022-10-08T05:25:03.071Z,12.00
2022-10-08T05:27:36.475Z,11.90
2022-10-08T05:30:12.041Z,12.40
2022-10-08T05:32:44.778Z,11.10
2022-10-08T05:35:17.350Z,9.80
2022-10-08T05:37:49.582Z,10.50
2022-10-08T05:40:22.405Z,10.80
2022-10-08T05:42:57.611Z,9.60
2022-10-08T05:45:29.996Z,10.10
2022-10-08T05:48:02.086Z,12.10
2022-10-08T05:50:37.442Z,12.10
2022-10-08T05:53:09.857Z,12.50
2022-10-08T05:55:41.810Z,11.50
2022-10-08T05:58:14.151Z,13.40
2022-10-08T06:00:46.302Z,15.80
2022-10-08T06:03:19.843Z,12.90
2022-10-08T06:05:52.502Z,13.30
2022-10-08T06:08:25.133Z,13.20
2022-10-08T06:10:58.212Z,14.20
2022-10-08T06:13:30.403Z,16.00
2022-10-08T06:16:05.121Z,18.60
2022-10-08T06:18:39.250Z,19.50
2022-10-08T06:21:16.640Z,20.60
2022-10-08T06:23:51.425Z,18.80
2022-10-08T06:26:27.343Z,16.60
2022-10-08T06:29:01.693Z,18.50
2022-10-08T06:31:34.044Z,19.00
2022-10-08T06:34:06.869Z,19.60
2022-10-08T06:36:39.342Z,20.90
2022-10-08T06:39:15.872Z,20.60
2022-10-08T06:41:48.370Z,19.50
2022-10-08T06:44:20.732Z,20.10
2022-10-08T06:46:52.896Z,19.80
2022-10-08T06:49:26.914Z,19.60
2022-10-08T06:51:59.033Z,22.50
2022-10-08T06:54:31.133Z,22.20
2022-10-08T06:57:03.294Z,21.80
2022-10-08T06:59:35.433Z,21.20
2022-10-08T07:02:08.015Z,19.70
2022-10-08T07:04:42.490Z,21.20
2022-10-08T07:07:21.622Z,20.60
2022-10-08T07:09:53.562Z,20.30
2022-10-08T07:12:25.700Z,19.60
2022-10-08T07:14:58.143Z,18.00
2022-10-08T07:17:31.682Z,19.10
2022-10-08T07:22:35.620Z,22.30
2022-10-08T07:27:41.518Z,22.40
2022-10-08T07:30:17.405Z,22.50
2022-10-08T07:32:50.307Z,21.10
2022-10-08T07:35:22.435Z,21.00
2022-10-08T07:37:56.544Z,20.70
2022-10-08T07:40:28.873Z,22.20
2022-10-08T07:43:02.687Z,21.40
2022-10-08T07:45:34.949Z,21.90
2022-10-08T07:48:07.322Z,21.80
2022-10-08T07:50:39.512Z,21.60
2022-10-08T07:53:11.700Z,20.90
2022-10-08T07:55:47.782Z,26.10
2022-10-08T07:58:20.562Z,18.30
2022-10-08T08:00:57.475Z,41.90
2022-10-08T08:03:30.457Z,23.90
2022-10-08T08:06:07.670Z,26.90
2022-10-08T08:08:42.091Z,18.60
2022-10-08T08:11:18.910Z,16.50
2022-10-08T08:13:55.000Z,15.70
2022-10-08T08:16:32.842Z,14.80
2022-10-08T08:19:05.539Z,14.90
2022-10-08T08:21:39.441Z,15.80
2022-10-08T08:24:16.890Z,18.70
2022-10-08T08:26:54.321Z,16.00
2022-10-08T08:29:29.172Z,14.80
2022-10-08T08:32:01.304Z,14.60
2022-10-08T08:34:33.351Z,13.60
2022-10-08T08:37:05.600Z,14.20
2022-10-08T08:39:37.900Z,14.60
2022-10-08T08:42:30.840Z,14.10
2022-10-08T08:45:22.754Z,15.30
2022-10-08T08:48:08.660Z,15.80
2022-10-08T08:50:48.624Z,14.40
2022-10-08T08:53:21.729Z,14.10
2022-10-08T08:56:00.132Z,13.30
2022-10-08T08:58:42.821Z,13.80
2022-10-08T09:01:26.845Z,12.50
2022-10-08T09:04:07.819Z,11.20
2022-10-08T09:06:42.732Z,11.60
2022-10-08T09:09:26.127Z,9.70
2022-10-08T09:11:59.211Z,9.70
2022-10-08T09:17:19.223Z,10.40
2022-10-08T09:19:52.641Z,9.40
2022-10-08T09:22:28.053Z,8.30
2022-10-08T09:25:05.821Z,7.80
2022-10-08T09:27:55.371Z,8.00
2022-10-08T09:30:36.767Z,10.90
2022-10-08T09:33:24.719Z,7.40
2022-10-08T09:35:57.263Z,6.70
2022-10-08T09:38:31.911Z,7.60
2022-10-08T09:41:07.010Z,7.50
2022-10-08T09:43:39.771Z,6.90
2022-10-08T09:46:31.721Z,7.40
2022-10-08T09:49:27.664Z,6.40
2022-10-08T09:52:03.744Z,6.60
2022-10-08T09:54:43.382Z,7.10
2022-10-08T09:57:26.503Z,6.80
2022-10-08T10:00:02.223Z,7.60
2022-10-08T10:02:38.804Z,8.90
2022-10-08T10:05:24.307Z,8.10
2022-10-08T10:07:56.970Z,8.10
2022-10-08T10:10:33.327Z,8.70
2022-10-08T10:13:11.455Z,8.60
2022-10-08T10:15:50.495Z,7.40
2022-10-08T10:18:28.282Z,6.20
2022-10-08T10:21:04.622Z,7.50
2022-10-08T10:23:40.992Z,6.30
2022-10-08T10:26:19.812Z,7.20
2022-10-08T10:28:58.090Z,8.70
2022-10-08T10:31:38.865Z,49.10
2022-10-08T10:34:18.763Z,17.30
2022-10-08T10:36:54.182Z,10.10
2022-10-08T10:39:34.052Z,5.30
2022-10-08T10:42:18.559Z,4.70
2022-10-08T10:44:58.163Z,5.90
2022-10-08T10:47:34.454Z,4.20
2022-10-08T10:50:08.032Z,5.70
2022-10-08T10:52:53.400Z,5.20
2022-10-08T10:55:33.499Z,4.10
2022-10-08T10:58:24.113Z,3.90
2022-10-08T11:01:07.067Z,4.10
2022-10-08T11:03:47.391Z,3.70
2022-10-08T11:06:44.442Z,3.90
2022-10-08T11:09:29.410Z,4.10
2022-10-08T11:12:06.530Z,3.60
2022-10-08T11:14:55.574Z,3.80
2022-10-08T11:17:41.680Z,6.50
2022-10-08T11:20:39.914Z,4.40
2022-10-08T11:23:20.532Z,4.20
2022-10-08T11:29:04.433Z,3.50
2022-10-08T11:31:44.435Z,4.30
2022-10-08T11:34:25.696Z,5.00
2022-10-08T11:37:08.624Z,4.80
2022-10-08T11:39:59.263Z,4.80
2022-10-08T11:42:43.933Z,4.00
2022-10-08T11:45:33.839Z,5.20
2022-10-08T11:48:33.070Z,5.40
2022-10-08T11:51:31.251Z,5.30
2022-10-08T11:54:12.852Z,5.30
2022-10-08T11:56:47.582Z,4.60
2022-10-08T11:59:39.595Z,4.80
2022-10-08T12:02:29.415Z,5.70
2022-10-08T12:05:18.316Z,6.10
2022-10-08T12:07:56.580Z,7.60
2022-10-08T12:10:39.999Z,7.70
2022-10-08T12:13:32.191Z,8.10
2022-10-08T12:16:08.071Z,6.00
2022-10-08T12:18:48.921Z,5.90
2022-10-08T12:21:52.782Z,5.70
2022-10-08T12:24:55.253Z,5.80
2022-10-08T12:27:43.481Z,6.10
2022-10-08T12:30:17.412Z,6.10
2022-10-08T12:32:59.562Z,6.30
2022-10-08T12:35:36.358Z,6.50
2022-10-08T12:38:25.607Z,6.80
2022-10-08T12:41:12.463Z,8.50
2022-10-08T12:43:53.312Z,6.90
2022-10-08T12:46:38.445Z,6.60
2022-10-08T12:49:20.533Z,6.60
2022-10-08T12:52:02.038Z,6.30
2022-10-08T12:54:35.152Z,6.40
2022-10-08T12:59:43.823Z,6.30
2022-10-08T13:02:37.340Z,6.40
2022-10-08T13:07:45.340Z,6.50
2022-10-08T13:10:30.991Z,6.30
2022-10-08T13:13:10.392Z,6.00
2022-10-08T13:15:43.662Z,6.20
2022-10-08T13:18:24.168Z,6.70
2022-10-08T13:21:04.790Z,6.70
2022-10-08T13:23:43.893Z,6.50
2022-10-08T13:26:45.011Z,6.50
2022-10-08T13:29:36.563Z,6.60
2022-10-08T13:32:21.293Z,7.40
2022-10-08T13:34:56.360Z,7.80
2022-10-08T13:37:38.248Z,7.70
2022-10-08T13:40:28.154Z,7.30
2022-10-08T13:43:01.127Z,7.80
2022-10-08T13:45:37.402Z,8.00
2022-10-08T13:48:13.815Z,7.60
2022-10-08T13:50:51.729Z,8.00
2022-10-08T13:53:26.932Z,8.40
2022-10-08T13:55:59.342Z,8.80
2022-10-08T13:58:33.055Z,8.20
2022-10-08T14:01:05.154Z,9.50
2022-10-08T14:03:37.270Z,7.80
2022-10-08T14:06:10.200Z,9.00
2022-10-08T14:08:44.672Z,8.10
2022-10-08T14:11:19.571Z,8.20
2022-10-08T14:13:52.030Z,8.80
2022-10-08T14:16:24.391Z,9.80
2022-10-08T14:18:59.414Z,8.80
2022-10-08T14:21:31.690Z,9.20
2022-10-08T14:24:05.231Z,10.10
2022-10-08T14:26:37.331Z,9.30
2022-10-08T14:29:09.772Z,9.10
2022-10-08T14:31:42.131Z,9.10
2022-10-08T14:34:14.372Z,9.90
2022-10-08T14:36:46.817Z,10.70
2022-10-08T14:39:19.515Z,8.90
2022-10-08T14:41:51.756Z,9.90
2022-10-08T14:44:24.299Z,11.00
2022-10-08T14:46:57.552Z,10.10
2022-10-08T14:49:32.919Z,9.50
2022-10-08T14:52:04.929Z,10.40
2022-10-08T14:54:37.041Z,10.90
2022-10-08T14:57:09.062Z,11.50
2022-10-08T14:59:41.566Z,11.30
2022-10-08T15:02:14.851Z,11.20
2022-10-08T15:04:47.570Z,11.10
2022-10-08T15:07:19.696Z,10.20
2022-10-08T15:09:51.993Z,11.10
2022-10-08T15:12:24.090Z,11.20
2022-10-08T15:14:56.832Z,10.90
2022-10-08T15:17:32.080Z,11.10
2022-10-08T15:20:05.253Z,11.00
2022-10-08T15:22:37.520Z,12.10
2022-10-08T15:25:10.822Z,12.10
2022-10-08T15:27:44.339Z,10.60
2022-10-08T15:30:18.442Z,9.90
2022-10-08T15:32:51.450Z,11.00
2022-10-08T15:35:26.700Z,10.60
2022-10-08T15:38:01.430Z,11.00
2022-10-08T15:40:36.533Z,10.60
2022-10-08T15:43:09.630Z,10.00
2022-10-08T15:45:46.535Z,10.10
2022-10-08T15:48:18.774Z,10.90
2022-10-08T15:51:01.264Z,11.60
2022-10-08T15:53:38.074Z,11.00
2022-10-08T15:56:12.141Z,10.20
2022-10-08T15:58:51.393Z,12.10
2022-10-08T16:01:25.822Z,12.40
2022-10-08T16:03:58.970Z,12.80
2022-10-08T16:06:35.781Z,10.90
2022-10-08T16:09:08.342Z,12.10
2022-10-08T16:11:42.532Z,12.10
2022-10-08T16:14:18.267Z,12.80
2022-10-08T16:16:51.168Z,12.90
2022-10-08T16:19:27.854Z,11.90
2022-10-08T16:22:01.450Z,11.70
2022-10-08T16:24:33.814Z,12.30
2022-10-08T16:27:06.314Z,13.20
2022-10-08T16:29:38.332Z,14.20
2022-10-08T16:32:11.396Z,13.70
2022-10-08T16:34:53.289Z,14.00
2022-10-08T16:37:25.982Z,14.80
2022-10-08T16:40:04.071Z,16.00
2022-10-08T16:42:36.436Z,15.20
2022-10-08T16:45:13.866Z,17.80
2022-10-08T16:47:47.861Z,18.20
2022-10-08T16:50:20.591Z,17.50
2022-10-08T16:52:52.762Z,16.80
2022-10-08T16:55:24.959Z,16.20
2022-10-08T16:58:00.421Z,15.50
2022-10-08T17:00:37.453Z,15.90
2022-10-08T17:03:09.642Z,16.70
2022-10-08T17:05:45.636Z,18.50
2022-10-08T17:08:18.050Z,18.30
2022-10-08T17:10:50.351Z,18.80
2022-10-08T17:13:22.700Z,18.80
2022-10-08T17:16:03.324Z,17.90
2022-10-08T17:18:39.063Z,17.00
2022-10-08T17:21:14.987Z,17.20
2022-10-08T17:23:47.612Z,17.80
2022-10-08T17:26:21.763Z,17.20
2022-10-08T17:28:55.516Z,17.70
2022-10-08T17:31:31.955Z,18.10
2022-10-08T17:34:05.223Z,18.30
2022-10-08T17:36:39.661Z,18.90
2022-10-08T17:39:16.849Z,17.10
2022-10-08T17:41:48.929Z,17.80
2022-10-08T17:44:21.700Z,18.80
2022-10-08T17:46:53.631Z,18.40
2022-10-08T17:49:26.352Z,19.10
2022-10-08T17:51:58.601Z,19.60
2022-10-08T17:54:32.810Z,20.00
2022-10-08T17:57:05.142Z,19.60
2022-10-08T17:59:39.423Z,19.00
2022-10-08T18:02:15.342Z,19.60
2022-10-08T18:04:47.460Z,18.30
2022-10-08T18:07:19.948Z,19.50
2022-10-08T18:09:52.008Z,20.70
2022-10-08T18:12:24.222Z,18.90
2022-10-08T18:14:59.110Z,20.20
2022-10-08T18:17:33.442Z,18.00
2022-10-08T18:20:11.423Z,20.40
2022-10-08T18:22:45.895Z,19.70
2022-10-08T18:25:18.992Z,19.70
2022-10-08T18:27:53.420Z,19.40
2022-10-08T18:30:27.890Z,19.50
2022-10-08T18:33:00.497Z,18.10
2022-10-08T18:35:33.217Z,19.30
2022-10-08T18:38:07.524Z,19.40
2022-10-08T18:40:40.009Z,19.60
2022-10-08T18:43:14.602Z,19.50
2022-10-08T18:45:50.093Z,17.10
2022-10-08T18:48:28.992Z,18.90
2022-10-08T18:51:12.100Z,18.80
2022-10-08T18:53:46.348Z,20.40
2022-10-08T18:56:23.359Z,21.70
2022-10-08T18:58:57.939Z,20.60
2022-10-08T19:01:40.772Z,20.90
2022-10-08T19:04:21.431Z,20.30
2022-10-08T19:06:55.663Z,20.80
2022-10-08T19:09:36.422Z,21.00
2022-10-08T19:12:10.059Z,20.00
2022-10-08T19:14:43.364Z,23.10
2022-10-08T19:17:22.800Z,21.90
2022-10-08T19:19:54.792Z,23.70
2022-10-08T19:22:26.941Z,24.90
2022-10-08T19:24:59.476Z,24.40
2022-10-08T19:27:31.524Z,25.10
2022-10-08T19:30:03.982Z,22.20
2022-10-08T19:32:36.030Z,23.40
2022-10-08T19:35:10.492Z,23.10
2022-10-08T19:37:43.368Z,21.70
2022-10-08T19:40:26.920Z,23.30
2022-10-08T19:42:58.850Z,22.70
2022-10-08T19:45:30.998Z,23.20
2022-10-08T19:48:03.122Z,23.50
2022-10-08T19:50:36.761Z,23.80
2022-10-08T19:53:08.883Z,23.60
2022-10-08T19:55:41.160Z,23.90
2022-10-08T19:58:15.144Z,23.90
2022-10-08T20:00:48.183Z,23.70
2022-10-08T20:03:20.258Z,24.90
2022-10-08T20:05:53.081Z,24.80
2022-10-08T20:08:26.410Z,24.80
2022-10-08T20:11:03.230Z,26.80
2022-10-08T20:13:36.102Z,25.10
2022-10-08T20:16:10.069Z,25.40
2022-10-08T20:18:42.473Z,26.40
2022-10-08T20:21:15.620Z,27.90
2022-10-08T20:23:48.811Z,27.20
2022-10-08T20:26:26.581Z,26.90
2022-10-08T20:29:02.204Z,27.20
2022-10-08T20:31:36.384Z,27.50
2022-10-08T20:34:13.082Z,28.80
2022-10-08T20:36:46.809Z,24.70
2022-10-08T20:39:21.244Z,27.30
2022-10-08T20:41:53.941Z,27.10
2022-10-08T20:44:26.542Z,28.70
2022-10-08T20:47:00.747Z,28.20
2022-10-08T20:49:36.430Z,28.40
2022-10-08T20:52:08.730Z,26.90
2022-10-08T20:54:41.547Z,27.10
2022-10-08T20:57:15.183Z,28.50
2022-10-08T20:59:47.563Z,27.50
2022-10-08T21:02:22.824Z,28.20
2022-10-08T21:04:58.782Z,26.90
2022-10-08T21:07:30.691Z,27.20
2022-10-08T21:10:02.904Z,26.90
2022-10-08T21:12:35.492Z,26.70
2022-10-08T21:15:10.777Z,27.70
2022-10-08T21:17:42.785Z,26.40
2022-10-08T21:20:15.164Z,27.10
2022-10-08T21:22:47.545Z,28.40
2022-10-08T21:25:19.983Z,28.90
2022-10-08T21:27:52.058Z,27.70
2022-10-08T21:30:24.333Z,28.30
2022-10-08T21:32:56.987Z,28.80
2022-10-08T21:35:29.270Z,27.90
2022-10-08T21:38:01.305Z,29.90
2022-10-08T21:40:33.383Z,28.10
2022-10-08T21:43:05.370Z,28.20
2022-10-08T21:45:37.685Z,29.30
2022-10-08T21:48:12.003Z,27.50
2022-10-08T21:50:55.900Z,27.20
2022-10-08T21:53:29.012Z,28.20
2022-10-08T21:56:03.831Z,27.80
2022-10-08T21:58:39.828Z,26.30
2022-10-08T22:01:22.621Z,27.50
2022-10-08T22:03:58.342Z,28.00
2022-10-08T22:06:32.410Z,26.80
2022-10-08T22:09:07.277Z,24.90
2022-10-08T22:11:39.628Z,26.10
2022-10-08T22:14:11.852Z,23.60
2022-10-08T22:16:45.996Z,24.40
2022-10-08T22:19:19.000Z,22.30
2022-10-08T22:21:51.508Z,22.50
2022-10-08T22:24:23.469Z,20.70
2022-10-08T22:26:56.015Z,20.40
2022-10-08T22:29:28.090Z,20.30
2022-10-08T22:32:00.325Z,19.90
2022-10-08T22:34:32.472Z,19.80
2022-10-08T22:37:04.533Z,18.20
2022-10-08T22:39:36.452Z,17.00
2022-10-08T22:42:08.812Z,18.10
2022-10-08T22:44:40.661Z,16.30
2022-10-08T22:47:15.889Z,16.20
2022-10-08T22:49:47.902Z,14.20
2022-10-08T22:52:21.493Z,15.00
2022-10-08T22:54:54.294Z,14.80
2022-10-08T22:57:26.550Z,13.50
2022-10-08T22:59:58.753Z,13.80
2022-10-08T23:02:30.873Z,14.20
2022-10-08T23:05:03.075Z,12.60
2022-10-08T23:07:35.212Z,11.90
2022-10-08T23:10:10.173Z,11.40
2022-10-08T23:12:42.252Z,11.90
2022-10-08T23:15:17.120Z,10.50
2022-10-08T23:17:49.182Z,10.50
2022-10-08T23:20:21.534Z,10.00
2022-10-08T23:22:53.791Z,10.10
2022-10-08T23:25:26.432Z,9.00
2022-10-08T23:27:58.840Z,9.80
2022-10-08T23:30:42.949Z,8.30
2022-10-08T23:33:15.851Z,8.80
2022-10-08T23:35:54.861Z,8.00
2022-10-08T23:38:30.026Z,7.80
2022-10-08T23:41:04.682Z,9.00
2022-10-08T23:43:39.640Z,8.00
2022-10-08T23:46:13.782Z,8.40
2022-10-08T23:48:47.159Z,7.00
2022-10-08T23:51:21.171Z,6.70
2022-10-08T23:53:56.240Z,6.50
2022-10-08T23:56:28.540Z,6.60
2022-10-08T23:59:00.949Z,6.30
